sensor_id;sensor_type;location;lat;lon;timestamp;P1;durP1;ratioP1;P2;durP2;ratioP2
23242;SDS011;11790;49.578;11.214;2023-05-29T00:04:58;6.03;;;3.10;;
23242;SDS011;11790;49.578;11.214;2023-05-29T00:09:58;7.28;;;3.05;;
23242;SDS011;11790;49.578;11.214;2023-05-29T00:14:58;5.75;;;2.67;;
23242;SDS011;11790;49.578;11.214;2023-05-29T00:20:02;6.63;;;3.10;;
23242;SDS011;11790;49.578;11.214;2023-05-29T00:25:06;5.68;;;2.92;;
23242;SDS011;11790;49.578;11.214;2023-05-29T00:30:06;5.70;;;2.67;;
23242;SDS011;11790;49.578;11.214;2023-05-29T00:35:08;6.68;;;3.03;;
23242;SDS011;11790;49.578;11.214;2023-05-29T00:40:09;5.07;;;2.95;;
23242;SDS011;11790;49.578;11.214;2023-05-29T00:45:10;6.03;;;3.33;;
23242;SDS011;11790;49.578;11.214;2023-05-29T00:50:10;5.25;;;2.55;;
23242;SDS011;11790;49.578;11.214;2023-05-29T00:55:10;5.30;;;2.63;;
23242;SDS011;11790;49.578;11.214;2023-05-29T01:00:11;6.95;;;2.92;;
23242;SDS011;11790;49.578;11.214;2023-05-29T01:05:13;6.30;;;3.13;;
23242;SDS011;11790;49.578;11.214;2023-05-29T01:10:14;7.80;;;3.22;;
23242;SDS011;11790;49.578;11.214;2023-05-29T01:15:18;7.63;;;2.75;;
23242;SDS011;11790;49.578;11.214;2023-05-29T01:25:27;11.13;;;3.38;;
23242;SDS011;11790;49.578;11.214;2023-05-29T01:30:30;5.33;;;2.70;;
23242;SDS011;11790;49.578;11.214;2023-05-29T01:35:32;5.88;;;3.00;;
23242;SDS011;11790;49.578;11.214;2023-05-29T01:40:32;6.82;;;3.00;;
23242;SDS011;11790;49.578;11.214;2023-05-29T01:45:32;6.07;;;2.75;;
23242;SDS011;11790;49.578;11.214;2023-05-29T01:50:33;7.30;;;3.00;;
23242;SDS011;11790;49.578;11.214;2023-05-29T01:55:34;5.28;;;2.88;;
23242;SDS011;11790;49.578;11.214;2023-05-29T02:00:34;5.50;;;2.95;;
23242;SDS011;11790;49.578;11.214;2023-05-29T02:05:34;5.93;;;2.90;;
23242;SDS011;11790;49.578;11.214;2023-05-29T02:10:34;4.72;;;2.58;;
23242;SDS011;11790;49.578;11.214;2023-05-29T02:15:35;4.63;;;2.75;;
23242;SDS011;11790;49.578;11.214;2023-05-29T02:20:35;5.93;;;2.70;;
23242;SDS011;11790;49.578;11.214;2023-05-29T02:25:35;5.28;;;2.70;;
23242;SDS011;11790;49.578;11.214;2023-05-29T02:30:35;7.57;;;3.17;;
23242;SDS011;11790;49.578;11.214;2023-05-29T02:35:36;8.10;;;3.65;;
23242;SDS011;11790;49.578;11.214;2023-05-29T02:40:36;7.40;;;3.42;;
23242;SDS011;11790;49.578;11.214;2023-05-29T02:45:36;8.93;;;3.70;;
23242;SDS011;11790;49.578;11.214;2023-05-29T02:50:36;6.10;;;3.33;;
23242;SDS011;11790;49.578;11.214;2023-05-29T02:55:36;8.35;;;3.28;;
23242;SDS011;11790;49.578;11.214;2023-05-29T03:00:37;6.80;;;3.53;;
23242;SDS011;11790;49.578;11.214;2023-05-29T03:05:37;7.45;;;3.20;;
23242;SDS011;11790;49.578;11.214;2023-05-29T03:10:38;5.82;;;3.00;;
23242;SDS011;11790;49.578;11.214;2023-05-29T03:15:38;7.05;;;3.08;;
23242;SDS011;11790;49.578;11.214;2023-05-29T03:20:38;5.05;;;3.33;;
23242;SDS011;11790;49.578;11.214;2023-05-29T03:25:38;5.13;;;3.17;;
23242;SDS011;11790;49.578;11.214;2023-05-29T03:30:38;5.78;;;2.85;;
23242;SDS011;11790;49.578;11.214;2023-05-29T03:35:38;11.85;;;3.28;;
23242;SDS011;11790;49.578;11.214;2023-05-29T03:40:39;10.20;;;3.53;;
23242;SDS011;11790;49.578;11.214;2023-05-29T03:45:39;5.57;;;3.30;;
23242;SDS011;11790;49.578;11.214;2023-05-29T03:50:39;6.28;;;3.38;;
23242;SDS011;11790;49.578;11.214;2023-05-29T03:55:39;6.00;;;3.47;;
23242;SDS011;11790;49.578;11.214;2023-05-29T04:00:40;5.55;;;3.28;;
23242;SDS011;11790;49.578;11.214;2023-05-29T04:05:40;8.40;;;3.50;;
23242;SDS011;11790;49.578;11.214;2023-05-29T04:10:40;5.70;;;3.60;;
23242;SDS011;11790;49.578;11.214;2023-05-29T04:15:40;7.00;;;3.47;;
23242;SDS011;11790;49.578;11.214;2023-05-29T04:20:41;5.60;;;3.03;;
23242;SDS011;11790;49.578;11.214;2023-05-29T04:25:42;6.38;;;3.50;;
23242;SDS011;11790;49.578;11.214;2023-05-29T04:30:43;8.80;;;3.30;;
23242;SDS011;11790;49.578;11.214;2023-05-29T04:35:44;10.95;;;3.17;;
23242;SDS011;11790;49.578;11.214;2023-05-29T04:40:45;7.47;;;3.22;;
23242;SDS011;11790;49.578;11.214;2023-05-29T04:45:45;5.60;;;3.08;;
23242;SDS011;11790;49.578;11.214;2023-05-29T04:50:45;8.55;;;3.95;;
23242;SDS011;11790;49.578;11.214;2023-05-29T04:55:45;12.50;;;7.03;;
23242;SDS011;11790;49.578;11.214;2023-05-29T05:00:45;17.30;;;8.07;;
23242;SDS011;11790;49.578;11.214;2023-05-29T05:05:47;12.98;;;6.85;;
23242;SDS011;11790;49.578;11.214;2023-05-29T05:10:47;10.35;;;5.45;;
23242;SDS011;11790;49.578;11.214;2023-05-29T05:15:48;8.18;;;4.70;;
23242;SDS011;11790;49.578;11.214;2023-05-29T05:20:48;7.13;;;3.67;;
23242;SDS011;11790;49.578;11.214;2023-05-29T05:25:48;9.25;;;3.50;;
23242;SDS011;11790;49.578;11.214;2023-05-29T05:30:48;5.85;;;3.38;;
23242;SDS011;11790;49.578;11.214;2023-05-29T05:35:48;6.15;;;3.63;;
23242;SDS011;11790;49.578;11.214;2023-05-29T05:40:49;7.10;;;2.92;;
23242;SDS011;11790;49.578;11.214;2023-05-29T05:45:49;6.32;;;2.83;;
23242;SDS011;11790;49.578;11.214;2023-05-29T05:50:49;6.03;;;2.90;;
23242;SDS011;11790;49.578;11.214;2023-05-29T05:55:50;8.18;;;2.78;;
23242;SDS011;11790;49.578;11.214;2023-05-29T06:00:50;8.32;;;2.58;;
23242;SDS011;11790;49.578;11.214;2023-05-29T06:05:52;3.65;;;2.45;;
23242;SDS011;11790;49.578;11.214;2023-05-29T06:10:54;8.10;;;3.10;;
23242;SDS011;11790;49.578;11.214;2023-05-29T06:15:54;6.90;;;2.50;;
23242;SDS011;11790;49.578;11.214;2023-05-29T06:20:54;4.15;;;2.50;;
23242;SDS011;11790;49.578;11.214;2023-05-29T06:25:54;5.85;;;2.30;;
23242;SDS011;11790;49.578;11.214;2023-05-29T06:30:55;3.88;;;2.10;;
23242;SDS011;11790;49.578;11.214;2023-05-29T06:35:55;5.25;;;2.30;;
23242;SDS011;11790;49.578;11.214;2023-05-29T06:40:55;3.78;;;2.22;;
23242;SDS011;11790;49.578;11.214;2023-05-29T06:45:56;3.63;;;2.30;;
23242;SDS011;11790;49.578;11.214;2023-05-29T06:50:56;3.35;;;2.55;;
23242;SDS011;11790;49.578;11.214;2023-05-29T06:55:56;5.18;;;2.78;;
23242;SDS011;11790;49.578;11.214;2023-05-29T07:00:57;5.80;;;2.15;;
23242;SDS011;11790;49.578;11.214;2023-05-29T07:05:57;3.38;;;1.83;;
23242;SDS011;11790;49.578;11.214;2023-05-29T07:10:57;3.55;;;2.30;;
23242;SDS011;11790;49.578;11.214;2023-05-29T07:15:57;4.03;;;2.20;;
23242;SDS011;11790;49.578;11.214;2023-05-29T07:20:59;3.50;;;2.33;;
23242;SDS011;11790;49.578;11.214;2023-05-29T07:25:59;3.78;;;2.20;;
23242;SDS011;11790;49.578;11.214;2023-05-29T07:31:00;2.55;;;1.85;;
23242;SDS011;11790;49.578;11.214;2023-05-29T07:36:00;4.20;;;2.47;;
23242;SDS011;11790;49.578;11.214;2023-05-29T07:41:00;3.13;;;1.77;;
23242;SDS011;11790;49.578;11.214;2023-05-29T07:46:00;4.20;;;2.30;;
23242;SDS011;11790;49.578;11.214;2023-05-29T07:51:00;3.85;;;2.28;;
23242;SDS011;11790;49.578;11.214;2023-05-29T07:56:01;3.72;;;2.15;;
23242;SDS011;11790;49.578;11.214;2023-05-29T08:01:01;3.72;;;1.90;;
23242;SDS011;11790;49.578;11.214;2023-05-29T08:06:01;3.08;;;2.22;;
23242;SDS011;11790;49.578;11.214;2023-05-29T08:11:01;2.55;;;1.90;;
23242;SDS011;11790;49.578;11.214;2023-05-29T08:16:02;2.97;;;1.95;;
23242;SDS011;11790;49.578;11.214;2023-05-29T08:21:02;3.13;;;2.03;;
23242;SDS011;11790;49.578;11.214;2023-05-29T08:26:03;4.70;;;2.15;;
23242;SDS011;11790;49.578;11.214;2023-05-29T08:31:03;11.87;;;2.27;;
23242;SDS011;11790;49.578;11.214;2023-05-29T08:36:03;3.63;;;2.60;;
23242;SDS011;11790;49.578;11.214;2023-05-29T08:41:03;3.33;;;2.10;;
23242;SDS011;11790;49.578;11.214;2023-05-29T08:46:04;6.00;;;2.45;;
23242;SDS011;11790;49.578;11.214;2023-05-29T08:51:05;4.37;;;2.23;;
23242;SDS011;11790;49.578;11.214;2023-05-29T08:56:07;4.75;;;2.30;;
23242;SDS011;11790;49.578;11.214;2023-05-29T09:01:07;2.97;;;2.17;;
23242;SDS011;11790;49.578;11.214;2023-05-29T09:06:08;6.05;;;2.15;;
23242;SDS011;11790;49.578;11.214;2023-05-29T09:11:08;3.20;;;2.03;;
23242;SDS011;11790;49.578;11.214;2023-05-29T09:16:08;3.08;;;2.10;;
23242;SDS011;11790;49.578;11.214;2023-05-29T09:21:09;2.78;;;2.25;;
23242;SDS011;11790;49.578;11.214;2023-05-29T09:26:09;2.77;;;1.97;;
23242;SDS011;11790;49.578;11.214;2023-05-29T09:36:23;3.65;;;2.00;;
23242;SDS011;11790;49.578;11.214;2023-05-29T09:41:23;3.05;;;1.88;;
23242;SDS011;11790;49.578;11.214;2023-05-29T09:46:23;3.15;;;1.92;;
23242;SDS011;11790;49.578;11.214;2023-05-29T09:51:24;2.78;;;1.95;;
23242;SDS011;11790;49.578;11.214;2023-05-29T09:56:24;3.38;;;2.25;;
23242;SDS011;11790;49.578;11.214;2023-05-29T10:01:25;3.17;;;2.13;;
23242;SDS011;11790;49.578;11.214;2023-05-29T10:06:26;4.53;;;3.42;;
23242;SDS011;11790;49.578;11.214;2023-05-29T10:11:28;3.55;;;1.95;;
23242;SDS011;11790;49.578;11.214;2023-05-29T10:16:29;3.05;;;2.08;;
23242;SDS011;11790;49.578;11.214;2023-05-29T10:21:30;10.52;;;5.18;;
23242;SDS011;11790;49.578;11.214;2023-05-29T10:26:31;4.40;;;2.45;;
23242;SDS011;11790;49.578;11.214;2023-05-29T10:31:39;2.28;;;1.70;;
23242;SDS011;11790;49.578;11.214;2023-05-29T10:36:42;3.25;;;2.15;;
23242;SDS011;11790;49.578;11.214;2023-05-29T10:41:44;4.72;;;2.20;;
23242;SDS011;11790;49.578;11.214;2023-05-29T10:51:48;2.47;;;1.90;;
23242;SDS011;11790;49.578;11.214;2023-05-29T10:56:55;3.77;;;1.93;;
23242;SDS011;11790;49.578;11.214;2023-05-29T11:01:56;2.92;;;2.20;;
23242;SDS011;11790;49.578;11.214;2023-05-29T11:06:57;2.53;;;1.80;;
23242;SDS011;11790;49.578;11.214;2023-05-29T11:12:13;2.87;;;2.20;;
23242;SDS011;11790;49.578;11.214;2023-05-29T11:23:00;2.80;;;2.00;;
23242;SDS011;11790;49.578;11.214;2023-05-29T11:28:02;2.45;;;1.73;;
23242;SDS011;11790;49.578;11.214;2023-05-29T11:33:04;4.18;;;1.88;;
23242;SDS011;11790;49.578;11.214;2023-05-29T11:38:05;3.65;;;1.88;;
23242;SDS011;11790;49.578;11.214;2023-05-29T11:43:05;3.97;;;1.70;;
23242;SDS011;11790;49.578;11.214;2023-05-29T11:48:06;4.25;;;1.75;;
23242;SDS011;11790;49.578;11.214;2023-05-29T11:53:06;3.07;;;1.60;;
23242;SDS011;11790;49.578;11.214;2023-05-29T11:58:07;2.75;;;1.63;;
23242;SDS011;11790;49.578;11.214;2023-05-29T12:03:07;1.67;;;1.55;;
23242;SDS011;11790;49.578;11.214;2023-05-29T12:08:08;2.28;;;1.58;;
23242;SDS011;11790;49.578;11.214;2023-05-29T12:13:09;2.58;;;1.98;;
23242;SDS011;11790;49.578;11.214;2023-05-29T12:18:09;2.05;;;1.50;;
23242;SDS011;11790;49.578;11.214;2023-05-29T12:23:10;2.35;;;1.60;;
23242;SDS011;11790;49.578;11.214;2023-05-29T12:28:15;2.20;;;1.70;;
23242;SDS011;11790;49.578;11.214;2023-05-29T12:38:18;2.05;;;1.73;;
23242;SDS011;11790;49.578;11.214;2023-05-29T12:43:19;2.47;;;1.50;;
23242;SDS011;11790;49.578;11.214;2023-05-29T12:48:19;2.45;;;1.60;;
23242;SDS011;11790;49.578;11.214;2023-05-29T12:53:21;2.60;;;1.80;;
23242;SDS011;11790;49.578;11.214;2023-05-29T12:58:21;3.13;;;1.65;;
23242;SDS011;11790;49.578;11.214;2023-05-29T13:03:22;1.92;;;1.63;;
23242;SDS011;11790;49.578;11.214;2023-05-29T13:13:25;3.53;;;1.48;;
23242;SDS011;11790;49.578;11.214;2023-05-29T13:18:25;2.17;;;1.80;;
23242;SDS011;11790;49.578;11.214;2023-05-29T13:23:25;3.30;;;1.73;;
23242;SDS011;11790;49.578;11.214;2023-05-29T13:28:26;3.03;;;1.83;;
23242;SDS011;11790;49.578;11.214;2023-05-29T13:33:27;2.50;;;1.50;;
23242;SDS011;11790;49.578;11.214;2023-05-29T13:38:27;2.58;;;1.80;;
23242;SDS011;11790;49.578;11.214;2023-05-29T13:43:27;2.30;;;1.50;;
23242;SDS011;11790;49.578;11.214;2023-05-29T13:48:27;3.20;;;1.88;;
23242;SDS011;11790;49.578;11.214;2023-05-29T13:53:28;2.38;;;1.95;;
23242;SDS011;11790;49.578;11.214;2023-05-29T13:58:28;2.50;;;1.98;;
23242;SDS011;11790;49.578;11.214;2023-05-29T14:03:28;2.58;;;1.60;;
23242;SDS011;11790;49.578;11.214;2023-05-29T14:08:28;3.03;;;1.80;;
23242;SDS011;11790;49.578;11.214;2023-05-29T14:13:28;3.25;;;1.90;;
23242;SDS011;11790;49.578;11.214;2023-05-29T14:18:29;1.95;;;1.70;;
23242;SDS011;11790;49.578;11.214;2023-05-29T14:23:29;2.17;;;1.52;;
23242;SDS011;11790;49.578;11.214;2023-05-29T14:28:29;2.47;;;1.88;;
23242;SDS011;11790;49.578;11.214;2023-05-29T14:33:29;2.05;;;1.70;;
23242;SDS011;11790;49.578;11.214;2023-05-29T14:38:30;2.27;;;1.60;;
23242;SDS011;11790;49.578;11.214;2023-05-29T14:43:30;3.53;;;2.08;;
23242;SDS011;11790;49.578;11.214;2023-05-29T14:48:30;2.72;;;1.85;;
23242;SDS011;11790;49.578;11.214;2023-05-29T14:53:30;4.68;;;2.17;;
23242;SDS011;11790;49.578;11.214;2023-05-29T14:58:31;8.70;;;2.10;;
23242;SDS011;11790;49.578;11.214;2023-05-29T15:03:31;3.58;;;2.10;;
23242;SDS011;11790;49.578;11.214;2023-05-29T15:08:32;3.67;;;2.17;;
23242;SDS011;11790;49.578;11.214;2023-05-29T15:13:34;2.97;;;1.98;;
23242;SDS011;11790;49.578;11.214;2023-05-29T15:18:34;3.47;;;1.90;;
23242;SDS011;11790;49.578;11.214;2023-05-29T15:23:35;3.85;;;1.75;;
23242;SDS011;11790;49.578;11.214;2023-05-29T15:28:38;3.22;;;2.00;;
23242;SDS011;11790;49.578;11.214;2023-05-29T15:33:39;2.63;;;2.07;;
23242;SDS011;11790;49.578;11.214;2023-05-29T15:38:39;2.60;;;2.00;;
23242;SDS011;11790;49.578;11.214;2023-05-29T15:43:40;2.17;;;1.73;;
23242;SDS011;11790;49.578;11.214;2023-05-29T15:48:40;2.78;;;2.00;;
23242;SDS011;11790;49.578;11.214;2023-05-29T15:53:41;4.78;;;2.28;;
23242;SDS011;11790;49.578;11.214;2023-05-29T15:58:41;6.18;;;3.00;;
23242;SDS011;11790;49.578;11.214;2023-05-29T16:03:41;2.35;;;1.90;;
23242;SDS011;11790;49.578;11.214;2023-05-29T16:08:42;3.50;;;1.90;;
23242;SDS011;11790;49.578;11.214;2023-05-29T16:13:42;6.53;;;3.03;;
23242;SDS011;11790;49.578;11.214;2023-05-29T16:18:43;3.65;;;2.90;;
23242;SDS011;11790;49.578;11.214;2023-05-29T16:23:43;6.63;;;3.88;;
23242;SDS011;11790;49.578;11.214;2023-05-29T16:28:43;7.35;;;2.70;;
23242;SDS011;11790;49.578;11.214;2023-05-29T16:33:43;4.43;;;2.88;;
23242;SDS011;11790;49.578;11.214;2023-05-29T16:38:43;5.05;;;2.92;;
23242;SDS011;11790;49.578;11.214;2023-05-29T16:43:44;4.70;;;2.50;;
23242;SDS011;11790;49.578;11.214;2023-05-29T16:48:44;5.07;;;2.45;;
23242;SDS011;11790;49.578;11.214;2023-05-29T16:53:44;3.30;;;2.30;;
23242;SDS011;11790;49.578;11.214;2023-05-29T16:58:44;3.90;;;2.15;;
23242;SDS011;11790;49.578;11.214;2023-05-29T17:03:44;4.35;;;2.65;;
23242;SDS011;11790;49.578;11.214;2023-05-29T17:08:45;5.07;;;2.70;;
23242;SDS011;11790;49.578;11.214;2023-05-29T17:13:45;4.70;;;2.47;;
23242;SDS011;11790;49.578;11.214;2023-05-29T17:18:45;3.95;;;2.47;;
23242;SDS011;11790;49.578;11.214;2023-05-29T17:23:45;3.88;;;2.33;;
23242;SDS011;11790;49.578;11.214;2023-05-29T17:28:45;4.72;;;2.25;;
23242;SDS011;11790;49.578;11.214;2023-05-29T17:33:45;4.10;;;2.33;;
23242;SDS011;11790;49.578;11.214;2023-05-29T17:38:46;6.82;;;2.38;;
23242;SDS011;11790;49.578;11.214;2023-05-29T17:43:47;4.60;;;2.38;;
23242;SDS011;11790;49.578;11.214;2023-05-29T17:48:47;4.60;;;2.60;;
23242;SDS011;11790;49.578;11.214;2023-05-29T17:53:48;7.75;;;2.58;;
23242;SDS011;11790;49.578;11.214;2023-05-29T17:58:48;4.78;;;2.50;;
23242;SDS011;11790;49.578;11.214;2023-05-29T18:03:49;5.07;;;2.50;;
23242;SDS011;11790;49.578;11.214;2023-05-29T18:08:49;3.67;;;2.20;;
23242;SDS011;11790;49.578;11.214;2023-05-29T18:13:49;3.75;;;2.20;;
23242;SDS011;11790;49.578;11.214;2023-05-29T18:18:49;4.07;;;2.58;;
23242;SDS011;11790;49.578;11.214;2023-05-29T18:23:50;6.05;;;2.70;;
23242;SDS011;11790;49.578;11.214;2023-05-29T18:28:50;6.57;;;2.55;;
23242;SDS011;11790;49.578;11.214;2023-05-29T18:33:51;4.32;;;2.80;;
23242;SDS011;11790;49.578;11.214;2023-05-29T18:38:51;5.63;;;3.00;;
23242;SDS011;11790;49.578;11.214;2023-05-29T18:43:54;4.65;;;2.67;;
23242;SDS011;11790;49.578;11.214;2023-05-29T18:48:55;4.20;;;2.60;;
23242;SDS011;11790;49.578;11.214;2023-05-29T18:53:55;4.32;;;2.55;;
23242;SDS011;11790;49.578;11.214;2023-05-29T18:58:56;3.40;;;2.40;;
23242;SDS011;11790;49.578;11.214;2023-05-29T19:03:57;3.95;;;2.70;;
23242;SDS011;11790;49.578;11.214;2023-05-29T19:08:59;4.57;;;2.63;;
23242;SDS011;11790;49.578;11.214;2023-05-29T19:14:00;3.78;;;2.38;;
23242;SDS011;11790;49.578;11.214;2023-05-29T19:19:02;5.30;;;2.92;;
23242;SDS011;11790;49.578;11.214;2023-05-29T19:24:02;4.17;;;2.60;;
23242;SDS011;11790;49.578;11.214;2023-05-29T19:29:03;5.80;;;2.77;;
23242;SDS011;11790;49.578;11.214;2023-05-29T19:34:03;5.07;;;2.50;;
23242;SDS011;11790;49.578;11.214;2023-05-29T19:39:04;4.88;;;2.53;;
23242;SDS011;11790;49.578;11.214;2023-05-29T19:44:04;7.10;;;2.60;;
23242;SDS011;11790;49.578;11.214;2023-05-29T19:49:06;9.38;;;3.13;;
23242;SDS011;11790;49.578;11.214;2023-05-29T19:54:06;7.32;;;2.90;;
23242;SDS011;11790;49.578;11.214;2023-05-29T19:59:06;5.45;;;2.92;;
23242;SDS011;11790;49.578;11.214;2023-05-29T20:04:07;4.82;;;2.83;;
23242;SDS011;11790;49.578;11.214;2023-05-29T20:09:07;5.70;;;3.10;;
23242;SDS011;11790;49.578;11.214;2023-05-29T20:14:09;7.05;;;3.10;;
23242;SDS011;11790;49.578;11.214;2023-05-29T20:19:09;8.00;;;3.38;;
23242;SDS011;11790;49.578;11.214;2023-05-29T20:24:10;3.57;;;2.47;;
23242;SDS011;11790;49.578;11.214;2023-05-29T20:29:12;4.82;;;2.83;;
23242;SDS011;11790;49.578;11.214;2023-05-29T20:34:12;4.78;;;2.95;;
23242;SDS011;11790;49.578;11.214;2023-05-29T20:39:12;6.80;;;3.27;;
23242;SDS011;11790;49.578;11.214;2023-05-29T20:44:13;5.30;;;2.88;;
23242;SDS011;11790;49.578;11.214;2023-05-29T20:49:14;6.22;;;3.10;;
23242;SDS011;11790;49.578;11.214;2023-05-29T20:54:16;7.53;;;2.72;;
23242;SDS011;11790;49.578;11.214;2023-05-29T20:59:16;6.65;;;2.92;;
23242;SDS011;11790;49.578;11.214;2023-05-29T21:04:19;5.88;;;2.67;;
23242;SDS011;11790;49.578;11.214;2023-05-29T21:09:20;8.02;;;3.00;;
23242;SDS011;11790;49.578;11.214;2023-05-29T21:14:20;5.67;;;2.87;;
23242;SDS011;11790;49.578;11.214;2023-05-29T21:19:20;5.82;;;2.90;;
23242;SDS011;11790;49.578;11.214;2023-05-29T21:24:21;5.65;;;2.85;;
23242;SDS011;11790;49.578;11.214;2023-05-29T21:29:22;5.13;;;3.15;;
23242;SDS011;11790;49.578;11.214;2023-05-29T21:34:22;10.10;;;3.60;;
23242;SDS011;11790;49.578;11.214;2023-05-29T21:39:24;5.40;;;3.08;;
23242;SDS011;11790;49.578;11.214;2023-05-29T21:44:24;5.53;;;3.17;;
23242;SDS011;11790;49.578;11.214;2023-05-29T21:49:26;5.70;;;3.42;;
23242;SDS011;11790;49.578;11.214;2023-05-29T21:54:26;7.27;;;3.37;;
23242;SDS011;11790;49.578;11.214;2023-05-29T21:59:26;8.07;;;3.22;;
23242;SDS011;11790;49.578;11.214;2023-05-29T22:04:26;5.53;;;3.05;;
23242;SDS011;11790;49.578;11.214;2023-05-29T22:09:27;4.20;;;2.92;;
23242;SDS011;11790;49.578;11.214;2023-05-29T22:14:27;5.65;;;3.20;;
23242;SDS011;11790;49.578;11.214;2023-05-29T22:19:27;7.13;;;2.93;;
23242;SDS011;11790;49.578;11.214;2023-05-29T22:24:30;9.85;;;3.40;;
23242;SDS011;11790;49.578;11.214;2023-05-29T22:29:31;7.68;;;3.47;;
23242;SDS011;11790;49.578;11.214;2023-05-29T22:34:32;4.57;;;3.22;;
23242;SDS011;11790;49.578;11.214;2023-05-29T22:39:32;5.57;;;3.08;;
23242;SDS011;11790;49.578;11.214;2023-05-29T22:44:34;4.95;;;3.08;;
23242;SDS011;11790;49.578;11.214;2023-05-29T22:49:34;7.20;;;3.17;;
23242;SDS011;11790;49.578;11.214;2023-05-29T22:54:34;7.10;;;3.50;;
23242;SDS011;11790;49.578;11.214;2023-05-29T22:59:34;6.18;;;3.40;;
23242;SDS011;11790;49.578;11.214;2023-05-29T23:04:35;6.47;;;3.20;;
23242;SDS011;11790;49.578;11.214;2023-05-29T23:09:35;7.33;;;3.00;;
23242;SDS011;11790;49.578;11.214;2023-05-29T23:14:35;5.88;;;3.33;;
23242;SDS011;11790;49.578;11.214;2023-05-29T23:19:36;6.10;;;3.10;;
23242;SDS011;11790;49.578;11.214;2023-05-29T23:24:36;4.70;;;2.95;;
23242;SDS011;11790;49.578;11.214;2023-05-29T23:29:36;7.83;;;3.07;;
23242;SDS011;11790;49.578;11.214;2023-05-29T23:34:37;6.07;;;3.40;;
23242;SDS011;11790;49.578;11.214;2023-05-29T23:39:39;8.63;;;3.53;;
23242;SDS011;11790;49.578;11.214;2023-05-29T23:44:39;4.63;;;3.10;;
23242;SDS011;11790;49.578;11.214;2023-05-29T23:49:39;6.03;;;3.03;;
23242;SDS011;11790;49.578;11.214;2023-05-29T23:54:39;8.27;;;3.30;;
23242;SDS011;11790;49.578;11.214;2023-05-29T23:59:40;6.88;;;3.28;;
